createdAt,value
2019-05-14T00:02:34.223Z,64.36
2019-05-14T00:05:23.624Z,63.52
2019-05-14T00:08:13.490Z,63.96
2019-05-14T00:11:04.036Z,63.80
2019-05-14T00:13:53.742Z,63.01
2019-05-14T00:16:44.536Z,63.99
2019-05-14T00:19:34.943Z,64.11
2019-05-14T00:22:25.043Z,64.19
2019-05-14T00:25:15.297Z,64.54
2019-05-14T00:28:05.166Z,64.35
2019-05-14T00:30:54.982Z,64.19
2019-05-14T00:33:45.054Z,64.34
2019-05-14T00:36:35.082Z,63.01
2019-05-14T00:39:24.626Z,64.26
2019-05-14T00:42:14.344Z,64.81
2019-05-14T00:45:04.286Z,64.40
2019-05-14T00:47:54.635Z,64.92
2019-05-14T00:50:45.146Z,64.26
2019-05-14T00:53:34.879Z,64.28
2019-05-14T00:56:26.181Z,64.62
2019-05-14T00:59:16.462Z,64.75
2019-05-14T01:02:06.876Z,63.85
2019-05-14T01:04:56.734Z,63.73
2019-05-14T01:07:46.927Z,64.83
2019-05-14T01:10:36.996Z,64.32
2019-05-14T01:13:26.889Z,64.78
2019-05-14T01:16:16.589Z,65.04
2019-05-14T01:19:06.398Z,65.17
2019-05-14T01:21:56.062Z,65.25
2019-05-14T01:24:47.392Z,65.37
2019-05-14T01:27:37.542Z,65.22
2019-05-14T01:30:27.622Z,65.28
2019-05-14T01:33:17.455Z,65.51
2019-05-14T01:36:07.310Z,65.71
2019-05-14T01:38:57.256Z,65.19
2019-05-14T01:41:47.489Z,65.85
2019-05-14T01:44:37.631Z,66.21
2019-05-14T01:47:27.943Z,66.02
2019-05-14T01:50:18.440Z,66.30
2019-05-14T01:53:08.432Z,66.26
2019-05-14T01:55:58.137Z,66.53
2019-05-14T01:58:47.846Z,66.79
2019-05-14T02:01:38.086Z,66.55
2019-05-14T02:04:27.611Z,66.65
2019-05-14T02:07:17.448Z,66.81
2019-05-14T02:10:08.506Z,66.83
2019-05-14T02:13:01.740Z,67.08
2019-05-14T02:15:52.074Z,67.03
2019-05-14T02:18:42.286Z,67.14
2019-05-14T02:21:32.559Z,67.39
2019-05-14T02:24:22.661Z,67.02
2019-05-14T02:27:12.566Z,67.18
2019-05-14T02:30:02.849Z,67.44
2019-05-14T02:32:52.879Z,67.38
2019-05-14T02:35:42.948Z,67.50
2019-05-14T02:38:33.085Z,67.80
2019-05-14T02:41:23.345Z,67.88
2019-05-14T02:44:13.550Z,68.03
2019-05-14T02:47:04.031Z,67.71
2019-05-14T02:49:53.786Z,67.78
2019-05-14T02:52:43.846Z,67.92
2019-05-14T02:55:34.229Z,68.20
2019-05-14T02:58:24.296Z,68.11
2019-05-14T03:01:14.134Z,68.12
2019-05-14T03:04:04.581Z,68.36
2019-05-14T03:06:55.672Z,68.38
2019-05-14T03:09:45.859Z,68.63
2019-05-14T03:12:39.290Z,68.66
2019-05-14T03:15:29.112Z,68.79
2019-05-14T03:18:20.053Z,68.99
2019-05-14T03:21:10.620Z,68.94
2019-05-14T03:24:01.038Z,68.99
2019-05-14T03:26:51.179Z,69.15
2019-05-14T03:29:41.115Z,69.20
2019-05-14T03:32:32.850Z,69.34
2019-05-14T03:35:33.259Z,69.43
2019-05-14T03:38:15.210Z,69.30
2019-05-14T03:41:05.512Z,69.23
2019-05-14T03:43:55.872Z,69.33
2019-05-14T03:46:54.902Z,69.58
2019-05-14T03:49:39.761Z,69.59
2019-05-14T03:52:30.243Z,69.57
2019-05-14T03:55:20.407Z,69.71
2019-05-14T03:58:10.458Z,69.72
2019-05-14T04:01:02.964Z,69.68
2019-05-14T04:03:53.176Z,69.75
2019-05-14T04:06:49.688Z,69.71
2019-05-14T04:09:40.398Z,69.63
2019-05-14T04:12:34.122Z,69.75
2019-05-14T04:15:29.896Z,69.76
2019-05-14T04:18:22.023Z,69.82
2019-05-14T04:21:15.021Z,69.80
2019-05-14T04:24:05.373Z,69.67
2019-05-14T04:27:07.371Z,69.49
2019-05-14T04:29:55.087Z,69.59
2019-05-14T04:32:50.277Z,69.43
2019-05-14T04:35:40.193Z,69.49
2019-05-14T04:38:30.419Z,69.21
2019-05-14T04:41:20.707Z,69.26
2019-05-14T04:44:10.611Z,69.11
2019-05-14T04:47:21.575Z,69.23
2019-05-14T04:49:52.190Z,69.29
2019-05-14T04:52:42.123Z,69.25
2019-05-14T04:55:32.171Z,69.18
2019-05-14T04:58:21.969Z,69.26
2019-05-14T05:01:11.531Z,69.59
2019-05-14T05:04:02.207Z,69.31
2019-05-14T05:06:52.222Z,69.19
2019-05-14T05:09:41.939Z,68.87
2019-05-14T05:12:31.802Z,68.34
2019-05-14T05:15:22.153Z,68.55
2019-05-14T05:18:12.101Z,68.16
2019-05-14T05:21:02.422Z,68.01
2019-05-14T05:23:52.333Z,67.88
2019-05-14T05:26:42.484Z,68.03
2019-05-14T05:29:32.768Z,67.64
2019-05-14T05:32:22.488Z,67.76
2019-05-14T05:35:12.371Z,67.27
2019-05-14T05:38:02.113Z,67.29
2019-05-14T05:40:51.936Z,66.35
2019-05-14T05:43:42.072Z,65.68
2019-05-14T05:46:32.136Z,66.09
2019-05-14T05:49:22.198Z,65.93
2019-05-14T05:52:12.240Z,66.12
2019-05-14T05:55:03.129Z,66.58
2019-05-14T05:57:53.428Z,66.43
2019-05-14T06:00:43.248Z,66.03
2019-05-14T06:03:33.125Z,65.10
2019-05-14T06:06:23.402Z,64.07
2019-05-14T06:09:13.919Z,63.00
2019-05-14T06:12:03.574Z,64.01
2019-05-14T06:14:53.378Z,63.94
2019-05-14T06:17:43.638Z,63.80
2019-05-14T06:20:33.964Z,63.63
2019-05-14T06:23:23.794Z,63.46
2019-05-14T06:26:14.139Z,64.02
2019-05-14T06:29:04.204Z,63.78
2019-05-14T06:31:54.155Z,63.76
2019-05-14T06:34:43.769Z,62.58
2019-05-14T06:37:33.909Z,62.86
2019-05-14T06:40:23.734Z,62.92
2019-05-14T06:43:13.549Z,62.05
2019-05-14T06:46:03.364Z,62.46
2019-05-14T06:48:52.836Z,62.37
2019-05-14T06:51:42.731Z,61.99
2019-05-14T06:54:32.492Z,62.81
2019-05-14T06:57:22.178Z,62.77
2019-05-14T07:00:12.829Z,63.22
2019-05-14T07:03:02.455Z,61.81
2019-05-14T07:05:52.964Z,61.93
2019-05-14T07:08:43.152Z,61.99
2019-05-14T07:11:32.980Z,61.33
2019-05-14T07:14:22.814Z,62.19
2019-05-14T07:17:12.538Z,62.16
2019-05-14T07:20:02.640Z,62.48
2019-05-14T07:22:52.463Z,61.62
2019-05-14T07:25:41.867Z,60.07
2019-05-14T07:28:31.828Z,62.25
2019-05-14T07:31:21.891Z,61.69
2019-05-14T07:34:11.765Z,60.79
2019-05-14T07:37:01.835Z,61.96
2019-05-14T07:39:51.456Z,58.89
2019-05-14T07:42:41.006Z,61.70
2019-05-14T07:45:33.349Z,62.01
2019-05-14T07:48:22.461Z,62.92
2019-05-14T07:51:12.392Z,59.94
2019-05-14T07:54:02.283Z,60.17
2019-05-14T07:56:53.070Z,60.28
2019-05-14T07:59:43.644Z,59.72
2019-05-14T08:02:33.818Z,59.35
2019-05-14T08:05:23.837Z,59.04
2019-05-14T08:08:13.675Z,59.83
2019-05-14T08:11:03.675Z,57.14
2019-05-14T08:13:53.917Z,59.17
2019-05-14T08:16:44.262Z,60.11
2019-05-14T08:19:34.651Z,60.07
2019-05-14T08:22:24.508Z,59.21
2019-05-14T08:25:15.054Z,59.08
2019-05-14T08:28:04.865Z,58.76
2019-05-14T08:30:54.734Z,59.83
2019-05-14T08:33:44.662Z,59.67
2019-05-14T08:36:34.450Z,60.44
2019-05-14T08:39:24.711Z,61.78
2019-05-14T08:42:14.810Z,60.57
2019-05-14T08:45:10.598Z,61.47
2019-05-14T08:47:58.669Z,61.44
2019-05-14T08:50:48.871Z,61.73
2019-05-14T08:53:39.035Z,60.88
2019-05-14T08:56:29.041Z,61.80
2019-05-14T08:59:19.668Z,61.32
2019-05-14T09:02:10.874Z,61.55
2019-05-14T09:05:03.733Z,61.06
2019-05-14T09:07:52.815Z,61.69
2019-05-14T09:10:42.754Z,60.30
2019-05-14T09:13:32.753Z,61.90
2019-05-14T09:16:38.346Z,62.42
2019-05-14T09:19:14.469Z,60.61
2019-05-14T09:22:04.327Z,59.99
2019-05-14T09:24:54.031Z,59.45
2019-05-14T09:27:43.945Z,57.19
2019-05-14T09:30:33.789Z,58.84
2019-05-14T09:33:24.457Z,58.97
2019-05-14T09:36:19.331Z,59.68
2019-05-14T09:39:11.997Z,60.30
2019-05-14T09:42:00.082Z,59.61
2019-05-14T09:44:50.068Z,59.54
2019-05-14T09:47:40.044Z,59.48
2019-05-14T09:50:30.419Z,60.00
2019-05-14T09:53:20.728Z,60.48
2019-05-14T09:56:10.738Z,60.26
2019-05-14T09:59:00.666Z,61.04
2019-05-14T10:01:51.004Z,61.23
2019-05-14T10:04:40.803Z,61.71
2019-05-14T10:07:30.982Z,62.27
2019-05-14T10:10:21.939Z,61.45
2019-05-14T10:13:11.978Z,59.29
2019-05-14T10:16:02.093Z,61.93
2019-05-14T10:18:53.050Z,61.01
2019-05-14T10:21:43.090Z,60.26
2019-05-14T10:24:33.099Z,56.66
2019-05-14T10:27:23.074Z,59.00
2019-05-14T10:30:13.000Z,59.16
2019-05-14T10:33:09.579Z,60.57
2019-05-14T10:35:55.389Z,58.53
2019-05-14T10:38:45.585Z,56.64
2019-05-14T10:41:38.540Z,55.82
2019-05-14T10:44:29.216Z,55.27
2019-05-14T10:47:19.526Z,58.13
2019-05-14T10:50:13.863Z,60.56
2019-05-14T10:53:01.980Z,60.00
2019-05-14T10:55:52.169Z,56.80
2019-05-14T10:58:42.554Z,56.47
2019-05-14T11:01:32.595Z,56.49
2019-05-14T11:04:22.198Z,56.16
2019-05-14T11:07:12.290Z,56.97
2019-05-14T11:10:02.199Z,59.52
2019-05-14T11:12:55.067Z,58.70
2019-05-14T11:15:44.952Z,58.38
2019-05-14T11:18:34.915Z,54.05
2019-05-14T11:21:27.582Z,55.94
2019-05-14T11:24:18.870Z,56.63
2019-05-14T11:27:09.908Z,56.41
2019-05-14T11:30:00.031Z,56.57
2019-05-14T11:32:50.487Z,56.08
2019-05-14T11:35:40.679Z,56.24
2019-05-14T11:38:37.147Z,56.59
2019-05-14T11:41:22.675Z,57.89
2019-05-14T11:44:12.495Z,57.46
2019-05-14T11:47:02.868Z,56.41
2019-05-14T11:49:52.325Z,57.84
2019-05-14T11:52:42.313Z,57.08
2019-05-14T11:55:32.625Z,56.77
2019-05-14T11:58:22.715Z,56.71
2019-05-14T12:01:12.896Z,54.81
2019-05-14T12:04:02.997Z,55.26
2019-05-14T12:06:52.812Z,55.23
2019-05-14T12:09:42.601Z,54.86
2019-05-14T12:12:32.684Z,55.42
2019-05-14T12:15:22.505Z,56.31
2019-05-14T12:18:12.523Z,56.67
2019-05-14T12:21:01.976Z,55.66
2019-05-14T12:23:51.979Z,57.15
2019-05-14T12:26:42.069Z,56.77
2019-05-14T12:29:32.337Z,56.56
2019-05-14T12:32:22.226Z,58.38
2019-05-14T12:35:12.538Z,57.10
2019-05-14T12:38:02.614Z,58.35
2019-05-14T12:40:52.385Z,58.50
2019-05-14T12:43:43.947Z,57.79
2019-05-14T12:46:34.388Z,57.96
2019-05-14T12:49:25.137Z,58.63
2019-05-14T12:52:24.599Z,56.53
2019-05-14T12:55:09.091Z,57.82
2019-05-14T12:57:59.837Z,56.43
2019-05-14T13:00:49.998Z,55.86
2019-05-14T13:03:40.444Z,55.92
2019-05-14T13:06:30.224Z,54.46
2019-05-14T13:09:21.700Z,56.51
2019-05-14T13:12:11.574Z,57.65
2019-05-14T13:15:01.337Z,57.39
2019-05-14T13:17:51.184Z,54.99
2019-05-14T13:20:40.628Z,56.26
2019-05-14T13:23:30.566Z,56.74
2019-05-14T13:26:20.430Z,57.26
2019-05-14T13:29:10.959Z,57.73
2019-05-14T13:32:01.399Z,56.86
2019-05-14T13:34:52.501Z,56.23
2019-05-14T13:37:42.653Z,57.02
2019-05-14T13:40:32.841Z,57.82
2019-05-14T13:43:22.786Z,58.06
2019-05-14T13:46:14.966Z,57.40
2019-05-14T13:49:05.415Z,59.07
2019-05-14T13:51:55.297Z,58.57
2019-05-14T13:54:45.330Z,57.95
2019-05-14T13:57:35.368Z,58.75
2019-05-14T14:00:26.722Z,59.28
2019-05-14T14:03:19.679Z,58.59
2019-05-14T14:06:10.414Z,57.72
2019-05-14T14:09:00.224Z,58.65
2019-05-14T14:11:50.279Z,58.31
2019-05-14T14:14:39.528Z,58.63
2019-05-14T14:17:29.389Z,58.75
2019-05-14T14:20:19.690Z,58.73
2019-05-14T14:23:21.792Z,58.25
2019-05-14T14:26:01.089Z,57.39
2019-05-14T14:28:50.986Z,57.56
2019-05-14T14:31:41.819Z,59.69
2019-05-14T14:34:35.183Z,60.89
2019-05-14T14:37:24.867Z,60.59
2019-05-14T14:40:15.627Z,61.70
2019-05-14T14:43:05.462Z,61.67
2019-05-14T14:45:55.569Z,62.24
2019-05-14T14:48:48.660Z,61.38
2019-05-14T14:51:43.846Z,61.37
2019-05-14T14:54:28.895Z,62.06
2019-05-14T14:57:20.143Z,61.94
2019-05-14T15:00:12.079Z,61.37
2019-05-14T15:03:02.033Z,62.69
2019-05-14T15:05:51.999Z,61.22
2019-05-14T15:08:41.602Z,59.54
2019-05-14T15:11:31.371Z,60.58
2019-05-14T15:14:21.365Z,60.67
2019-05-14T15:17:10.933Z,57.57
2019-05-14T15:20:01.098Z,57.31
2019-05-14T15:22:51.476Z,58.65
2019-05-14T15:25:41.684Z,58.69
2019-05-14T15:28:34.385Z,59.60
2019-05-14T15:31:23.281Z,59.66
2019-05-14T15:34:13.359Z,60.33
2019-05-14T15:37:03.434Z,61.08
2019-05-14T15:39:53.759Z,59.47
2019-05-14T15:42:43.988Z,60.06
2019-05-14T15:45:34.091Z,61.71
2019-05-14T15:48:24.090Z,62.24
2019-05-14T15:51:15.161Z,60.96
2019-05-14T15:54:34.548Z,61.32
2019-05-14T15:57:00.786Z,62.05
2019-05-14T15:59:50.642Z,61.91
2019-05-14T16:02:40.952Z,61.53
2019-05-14T16:05:30.675Z,61.41
2019-05-14T16:08:22.718Z,61.45
2019-05-14T16:11:12.222Z,61.56
2019-05-14T16:14:02.244Z,59.43
2019-05-14T16:16:52.271Z,59.32
2019-05-14T16:19:43.614Z,59.79
2019-05-14T16:22:33.223Z,60.29
2019-05-14T16:25:23.082Z,60.84
2019-05-14T16:28:13.147Z,60.76
2019-05-14T16:31:03.082Z,61.70
2019-05-14T16:33:53.095Z,60.77
2019-05-14T16:36:43.154Z,59.72
2019-05-14T16:39:33.095Z,60.41
2019-05-14T16:42:23.288Z,59.26
2019-05-14T16:45:14.653Z,58.57
2019-05-14T16:48:05.262Z,59.59
2019-05-14T16:50:55.245Z,60.46
2019-05-14T16:53:48.815Z,59.54
2019-05-14T16:56:41.376Z,60.43
2019-05-14T16:59:29.950Z,59.21
2019-05-14T17:02:19.846Z,59.49
2019-05-14T17:05:10.505Z,60.23
2019-05-14T17:08:00.079Z,59.76
2019-05-14T17:10:50.311Z,58.85
2019-05-14T17:13:40.636Z,59.55
2019-05-14T17:16:30.727Z,60.09
2019-05-14T17:19:20.913Z,60.82
2019-05-14T17:22:24.344Z,60.69
2019-05-14T17:25:02.082Z,60.53
2019-05-14T17:27:53.270Z,60.30
2019-05-14T17:30:43.124Z,59.98
2019-05-14T17:33:33.410Z,59.76
2019-05-14T17:36:22.999Z,60.48
2019-05-14T17:39:13.474Z,59.50
2019-05-14T17:42:04.227Z,60.51
2019-05-14T17:44:54.534Z,60.21
2019-05-14T17:47:44.448Z,59.97
2019-05-14T17:50:34.522Z,60.41
2019-05-14T17:53:24.537Z,58.43
2019-05-14T17:56:14.629Z,59.82
2019-05-14T17:59:05.323Z,61.39
2019-05-14T18:01:58.075Z,60.85
2019-05-14T18:04:48.807Z,60.73
2019-05-14T18:07:38.555Z,60.98
2019-05-14T18:10:28.564Z,60.39
2019-05-14T18:13:19.138Z,59.66
2019-05-14T18:16:09.294Z,60.29
2019-05-14T18:18:59.492Z,61.15
2019-05-14T18:21:51.719Z,60.85
2019-05-14T18:24:41.730Z,60.84
2019-05-14T18:27:31.873Z,60.95
2019-05-14T18:30:21.763Z,61.45
2019-05-14T18:33:11.518Z,60.81
2019-05-14T18:36:01.566Z,60.55
2019-05-14T18:38:51.528Z,59.61
2019-05-14T18:41:41.623Z,61.27
2019-05-14T18:44:31.824Z,61.92
2019-05-14T18:47:22.718Z,61.54
2019-05-14T18:50:13.277Z,62.24
2019-05-14T18:53:05.301Z,61.97
2019-05-14T18:55:55.512Z,62.61
2019-05-14T18:58:45.784Z,62.56
2019-05-14T19:01:39.481Z,63.12
2019-05-14T19:04:28.408Z,62.87
2019-05-14T19:07:18.862Z,62.46
2019-05-14T19:10:09.485Z,62.06
2019-05-14T19:12:59.434Z,62.60
2019-05-14T19:15:49.768Z,63.32
2019-05-14T19:18:40.036Z,63.02
2019-05-14T19:21:31.523Z,62.98
2019-05-14T19:24:21.583Z,63.16
2019-05-14T19:27:11.766Z,61.29
2019-05-14T19:30:03.219Z,62.63
2019-05-14T19:32:53.704Z,62.66
2019-05-14T19:35:43.878Z,62.70
2019-05-14T19:38:33.809Z,62.99
2019-05-14T19:41:24.195Z,63.64
2019-05-14T19:44:14.412Z,62.51
2019-05-14T19:47:04.608Z,62.99
2019-05-14T19:49:55.231Z,63.45
2019-05-14T19:52:45.311Z,62.89
2019-05-14T19:55:35.086Z,62.85
2019-05-14T19:58:25.293Z,62.92
2019-05-14T20:01:15.297Z,62.78
2019-05-14T20:04:05.792Z,63.84
2019-05-14T20:07:14.705Z,63.77
2019-05-14T20:10:05.415Z,63.82
2019-05-14T20:12:55.699Z,63.94
2019-05-14T20:15:48.472Z,63.67
2019-05-14T20:18:38.718Z,62.98
2019-05-14T20:21:28.697Z,63.04
2019-05-14T20:24:19.019Z,62.13
2019-05-14T20:27:12.145Z,64.01
2019-05-14T20:30:00.502Z,63.88
2019-05-14T20:32:50.880Z,63.37
2019-05-14T20:35:40.959Z,63.93
2019-05-14T20:38:32.108Z,64.19
2019-05-14T20:41:23.244Z,63.30
2019-05-14T20:44:13.312Z,61.87
2019-05-14T20:47:03.955Z,62.95
2019-05-14T20:49:54.477Z,63.05
2019-05-14T20:52:44.765Z,61.87
2019-05-14T20:55:34.767Z,61.63
2019-05-14T20:58:25.127Z,62.84
2019-05-14T21:01:15.313Z,63.33
2019-05-14T21:04:05.417Z,63.94
2019-05-14T21:06:55.768Z,62.33
2019-05-14T21:09:45.823Z,63.75
2019-05-14T21:12:35.830Z,64.10
2019-05-14T21:15:28.255Z,64.33
2019-05-14T21:18:19.000Z,63.25
2019-05-14T21:21:11.191Z,63.43
2019-05-14T21:24:01.073Z,63.57
2019-05-14T21:26:50.563Z,64.35
2019-05-14T21:29:40.685Z,63.99
2019-05-14T21:32:30.400Z,64.37
2019-05-14T21:35:21.123Z,64.27
2019-05-14T21:38:11.055Z,64.46
2019-05-14T21:41:01.096Z,64.41
2019-05-14T21:43:51.105Z,64.65
2019-05-14T21:46:41.638Z,64.66
2019-05-14T21:49:31.925Z,64.84
2019-05-14T21:52:22.093Z,65.14
2019-05-14T21:55:12.065Z,64.62
2019-05-14T21:58:01.880Z,65.27
2019-05-14T22:00:56.070Z,64.83
2019-05-14T22:03:48.408Z,65.16
2019-05-14T22:06:40.894Z,65.08
2019-05-14T22:09:29.350Z,65.06
2019-05-14T22:12:20.644Z,65.38
2019-05-14T22:15:10.773Z,65.45
2019-05-14T22:18:00.628Z,65.25
2019-05-14T22:20:50.192Z,65.55
2019-05-14T22:23:40.310Z,65.67
2019-05-14T22:26:30.326Z,65.60
2019-05-14T22:29:20.278Z,65.52
2019-05-14T22:32:10.369Z,64.54
2019-05-14T22:35:00.381Z,65.20
2019-05-14T22:37:50.144Z,65.55
2019-05-14T22:40:39.919Z,65.39
2019-05-14T22:43:29.893Z,65.76
2019-05-14T22:46:19.997Z,65.41
2019-05-14T22:49:09.849Z,65.68
2019-05-14T22:51:59.883Z,65.51
2019-05-14T22:54:49.883Z,65.60
2019-05-14T22:57:39.899Z,65.66
2019-05-14T23:00:29.802Z,65.69
2019-05-14T23:03:21.208Z,64.89
2019-05-14T23:06:11.069Z,65.50
2019-05-14T23:09:01.002Z,64.03
2019-05-14T23:11:52.420Z,63.01
2019-05-14T23:14:42.680Z,65.08
2019-05-14T23:17:32.629Z,65.17
2019-05-14T23:20:22.791Z,64.18
2019-05-14T23:23:12.657Z,65.53
2019-05-14T23:26:02.638Z,65.83
2019-05-14T23:28:52.805Z,65.61
2019-05-14T23:31:42.805Z,65.38
2019-05-14T23:34:32.894Z,65.90
2019-05-14T23:37:22.749Z,66.28
2019-05-14T23:40:13.123Z,66.27
2019-05-14T23:43:02.323Z,66.29
2019-05-14T23:54:44.035Z,67.08
2019-05-14T23:57:34.609Z,67.45
